Springhill, Louisiana
Current Conditions -  °F | °C
As of 1:36 AM on Sunday 23 Nov 2014 (Local Time) from KMNE Reporting Station
Drizzle Drizzle  
Wind Chill: 61°   Ceiling: 800
Heat Index: 61°   Visibility: 7mi
Dew Point: 59°   Wind: 3mph
Humidity: 94%   Direction: 170°S
Pressure: 29.76"   Gusts: NA
Location:  33.01°N, 93.47°W
Report Text: KMNE 230736Z AUTO 17003KT 7SM -DZ OVC008 16/15 A2976 RMK AO2 P0005
Loading
Personal Weather Stations






























Interactive Weather Map New forecast layout! Learn more

10-Day Weather Forecast

Advertisements
Track Severe Weather on mobile